createdAt,value
2023-09-20T00:02:01.412Z,19.67
2023-09-20T00:04:30.675Z,19.67
2023-09-20T00:06:58.019Z,19.68
2023-09-20T00:09:24.914Z,19.69
2023-09-20T00:11:51.468Z,19.71
2023-09-20T00:14:18.128Z,19.70
2023-09-20T00:16:44.784Z,19.72
2023-09-20T00:19:11.384Z,19.73
2023-09-20T00:21:37.925Z,19.73
2023-09-20T00:24:07.622Z,19.74
2023-09-20T00:26:35.304Z,19.74
2023-09-20T00:29:06.797Z,19.74
2023-09-20T00:31:34.143Z,19.74
2023-09-20T00:34:04.553Z,19.73
2023-09-20T00:36:32.164Z,19.72
2023-09-20T00:38:59.470Z,19.71
2023-09-20T00:41:26.355Z,19.70
2023-09-20T00:43:53.785Z,19.69
2023-09-20T00:46:25.092Z,19.68
2023-09-20T00:48:52.643Z,19.68
2023-09-20T00:51:23.294Z,19.68
2023-09-20T00:53:54.232Z,19.68
2023-09-20T00:56:22.428Z,19.67
2023-09-20T00:58:52.506Z,19.66
2023-09-20T01:01:20.163Z,19.66
2023-09-20T01:03:48.497Z,19.65
2023-09-20T01:06:21.122Z,19.66
2023-09-20T01:08:50.557Z,19.66
2023-09-20T01:11:17.315Z,19.65
2023-09-20T01:13:46.018Z,19.65
2023-09-20T01:16:15.458Z,19.65
2023-09-20T01:18:45.763Z,19.64
2023-09-20T01:21:15.505Z,19.64
2023-09-20T01:23:44.152Z,19.63
2023-09-20T01:26:15.248Z,19.62
2023-09-20T01:28:42.274Z,19.62
2023-09-20T01:31:09.377Z,19.61
2023-09-20T01:33:36.882Z,19.61
2023-09-20T01:36:06.525Z,19.61
2023-09-20T01:38:33.927Z,19.60
2023-09-20T01:41:00.637Z,19.61
2023-09-20T01:43:27.217Z,19.62
2023-09-20T01:45:54.775Z,19.62
2023-09-20T01:48:22.019Z,19.62
2023-09-20T01:50:50.295Z,19.64
2023-09-20T01:53:16.954Z,19.66
2023-09-20T01:55:44.154Z,19.66
2023-09-20T01:58:14.118Z,19.66
2023-09-20T02:00:42.104Z,19.67
2023-09-20T02:03:12.748Z,19.66
2023-09-20T02:05:39.503Z,19.66
2023-09-20T02:08:07.777Z,19.65
2023-09-20T02:10:40.617Z,19.64
2023-09-20T02:13:08.094Z,19.63
2023-09-20T02:15:41.360Z,19.62
2023-09-20T02:18:10.476Z,19.62
2023-09-20T02:20:39.200Z,19.61
2023-09-20T02:23:08.086Z,19.60
2023-09-20T02:25:34.833Z,19.59
2023-09-20T02:28:02.521Z,19.58
2023-09-20T02:30:29.929Z,19.57
2023-09-20T02:32:59.604Z,19.57
2023-09-20T02:35:27.969Z,19.57
2023-09-20T02:37:55.799Z,19.56
2023-09-20T02:40:28.956Z,19.56
2023-09-20T02:43:02.043Z,19.56
2023-09-20T02:45:30.483Z,19.55
2023-09-20T02:47:58.975Z,19.54
2023-09-20T02:50:26.932Z,19.53
2023-09-20T02:52:54.196Z,19.53
2023-09-20T02:55:22.495Z,19.52
2023-09-20T02:57:53.585Z,19.52
2023-09-20T03:00:23.147Z,19.52
2023-09-20T03:02:51.678Z,19.52
2023-09-20T03:05:26.020Z,19.51
2023-09-20T03:07:54.477Z,19.51
2023-09-20T03:10:22.660Z,19.50
2023-09-20T03:12:55.810Z,19.50
2023-09-20T03:15:24.936Z,19.49
2023-09-20T03:17:54.046Z,19.50
2023-09-20T03:20:24.613Z,19.51
2023-09-20T03:23:05.167Z,19.51
2023-09-20T03:25:38.851Z,19.52
2023-09-20T03:28:09.079Z,19.54
2023-09-20T03:30:38.767Z,19.53
2023-09-20T03:33:06.919Z,19.54
2023-09-20T03:35:35.272Z,19.53
2023-09-20T03:38:03.187Z,19.54
2023-09-20T03:40:30.073Z,19.52
2023-09-20T03:42:56.742Z,19.51
2023-09-20T03:45:25.243Z,19.51
2023-09-20T03:47:58.202Z,19.49
2023-09-20T03:50:25.371Z,19.49
2023-09-20T03:52:53.398Z,19.48
2023-09-20T03:55:20.896Z,19.48
2023-09-20T03:57:47.436Z,19.48
2023-09-20T04:00:25.987Z,19.47
2023-09-20T04:02:54.829Z,19.47
2023-09-20T04:05:39.181Z,19.45
2023-09-20T04:08:09.527Z,19.44
2023-09-20T04:10:36.558Z,19.44
2023-09-20T04:13:04.193Z,19.43
2023-09-20T04:15:30.833Z,19.42
2023-09-20T04:17:57.735Z,19.42
2023-09-20T04:20:24.854Z,19.41
2023-09-20T04:22:51.566Z,19.41
2023-09-20T04:25:19.085Z,19.40
2023-09-20T04:27:47.848Z,19.40
2023-09-20T04:30:15.570Z,19.39
2023-09-20T04:32:42.579Z,19.40
2023-09-20T04:35:09.434Z,19.38
2023-09-20T04:37:37.218Z,19.39
2023-09-20T04:40:04.935Z,19.38
2023-09-20T04:42:34.763Z,19.37
2023-09-20T04:45:01.739Z,19.36
2023-09-20T04:47:30.047Z,19.36
2023-09-20T04:49:56.686Z,19.35
2023-09-20T04:52:23.430Z,19.36
2023-09-20T04:54:50.508Z,19.36
2023-09-20T04:57:17.027Z,19.35
2023-09-20T04:59:43.730Z,19.37
2023-09-20T05:02:12.095Z,19.38
2023-09-20T05:04:39.730Z,19.37
2023-09-20T05:07:08.975Z,19.38
2023-09-20T05:09:36.967Z,19.38
2023-09-20T05:12:04.657Z,19.39
2023-09-20T05:14:31.680Z,19.40
2023-09-20T05:16:58.341Z,19.39
2023-09-20T05:19:24.897Z,19.40
2023-09-20T05:21:51.884Z,19.40
2023-09-20T05:24:18.526Z,19.39
2023-09-20T05:26:45.324Z,19.40
2023-09-20T05:29:12.072Z,19.40
2023-09-20T05:31:38.796Z,19.40
2023-09-20T05:34:06.668Z,19.39
2023-09-20T05:36:34.512Z,19.39
2023-09-20T05:39:01.157Z,19.38
2023-09-20T05:41:29.362Z,19.37
2023-09-20T05:43:56.250Z,19.37
2023-09-20T05:46:25.823Z,19.36
2023-09-20T05:48:53.530Z,19.36
2023-09-20T05:51:21.614Z,19.36
2023-09-20T05:53:52.380Z,19.36
2023-09-20T05:56:20.904Z,19.36
2023-09-20T05:58:47.879Z,19.35
2023-09-20T06:01:17.072Z,19.35
2023-09-20T06:03:44.393Z,19.35
2023-09-20T06:06:11.041Z,19.34
2023-09-20T06:08:37.892Z,19.34
2023-09-20T06:11:07.468Z,19.35
2023-09-20T06:13:37.397Z,19.34
2023-09-20T06:16:07.111Z,19.33
2023-09-20T06:18:34.839Z,19.33
2023-09-20T06:21:01.841Z,19.34
2023-09-20T06:23:28.478Z,19.33
2023-09-20T06:25:55.164Z,19.33
2023-09-20T06:28:21.902Z,19.31
2023-09-20T06:30:48.891Z,19.32
2023-09-20T06:33:16.109Z,19.33
2023-09-20T06:35:44.612Z,19.33
2023-09-20T06:38:11.718Z,19.33
2023-09-20T06:40:41.321Z,19.36
2023-09-20T06:43:08.913Z,19.36
2023-09-20T06:45:52.321Z,19.37
2023-09-20T06:48:26.634Z,19.37
2023-09-20T06:50:55.325Z,19.38
2023-09-20T06:53:24.812Z,19.39
2023-09-20T06:55:51.833Z,19.39
2023-09-20T06:58:20.904Z,19.38
2023-09-20T07:00:48.416Z,19.36
2023-09-20T07:03:15.511Z,19.36
2023-09-20T07:05:42.585Z,19.35
2023-09-20T07:08:09.784Z,19.37
2023-09-20T07:10:38.092Z,19.39
2023-09-20T07:13:07.280Z,19.41
2023-09-20T07:15:36.326Z,19.44
2023-09-20T07:18:13.057Z,19.47
2023-09-20T07:20:42.378Z,19.51
2023-09-20T07:23:14.623Z,19.53
2023-09-20T07:25:41.840Z,19.55
2023-09-20T07:28:09.109Z,19.59
2023-09-20T07:30:41.782Z,19.61
2023-09-20T07:33:13.498Z,19.62
2023-09-20T07:35:48.684Z,19.66
2023-09-20T07:38:27.526Z,19.67
2023-09-20T07:41:15.399Z,19.72
2023-09-20T07:43:49.109Z,19.74
2023-09-20T07:46:16.703Z,19.76
2023-09-20T07:48:51.295Z,19.77
2023-09-20T07:51:24.521Z,19.79
2023-09-20T07:53:55.172Z,19.82
2023-09-20T07:56:23.886Z,19.83
2023-09-20T07:58:53.081Z,19.85
2023-09-20T08:01:20.986Z,19.87
2023-09-20T08:03:56.110Z,19.89
2023-09-20T08:06:29.231Z,19.91
2023-09-20T08:08:57.410Z,19.92
2023-09-20T08:11:24.388Z,19.96
2023-09-20T08:13:52.640Z,19.98
2023-09-20T08:16:20.287Z,19.99
2023-09-20T08:19:25.032Z,20.00
2023-09-20T08:21:51.900Z,20.02
2023-09-20T08:24:37.397Z,20.04
2023-09-20T08:27:22.726Z,20.06
2023-09-20T08:30:07.791Z,20.09
2023-09-20T08:32:53.056Z,20.08
2023-09-20T08:35:38.560Z,20.09
2023-09-20T08:38:23.834Z,20.07
2023-09-20T08:41:09.440Z,20.08
2023-09-20T08:43:54.903Z,20.07
2023-09-20T08:46:42.310Z,20.07
2023-09-20T08:49:27.522Z,20.06
2023-09-20T08:52:32.636Z,20.06
2023-09-20T08:55:19.136Z,20.06
2023-09-20T08:58:04.492Z,20.06
2023-09-20T09:00:35.628Z,20.05
2023-09-20T09:03:05.727Z,20.03
2023-09-20T09:05:34.265Z,20.02
2023-09-20T09:08:04.926Z,20.01
2023-09-20T09:10:31.812Z,20.00
2023-09-20T09:12:58.581Z,19.98
2023-09-20T09:15:28.063Z,19.98
2023-09-20T09:17:55.698Z,19.97
2023-09-20T09:20:22.497Z,19.95
2023-09-20T09:22:53.630Z,19.95
2023-09-20T09:25:25.902Z,19.95
2023-09-20T09:27:52.926Z,19.93
2023-09-20T09:30:19.612Z,19.92
2023-09-20T09:32:49.021Z,19.92
2023-09-20T09:35:19.069Z,19.90
2023-09-20T09:37:48.598Z,19.91
2023-09-20T09:40:16.067Z,19.91
2023-09-20T09:42:44.716Z,19.91
2023-09-20T09:45:11.386Z,19.93
2023-09-20T09:47:38.777Z,19.95
2023-09-20T09:50:07.366Z,19.96
2023-09-20T09:52:37.898Z,19.96
2023-09-20T09:55:05.510Z,19.97
2023-09-20T09:57:32.166Z,19.97
2023-09-20T09:59:58.902Z,19.98
2023-09-20T10:02:33.100Z,19.98
2023-09-20T10:05:03.839Z,19.98
2023-09-20T10:07:37.207Z,19.97
2023-09-20T10:10:10.128Z,19.97
2023-09-20T10:12:39.625Z,19.97
2023-09-20T10:15:12.516Z,19.95
2023-09-20T10:17:56.491Z,19.96
2023-09-20T10:20:24.241Z,19.94
2023-09-20T10:22:53.813Z,19.94
2023-09-20T10:25:31.574Z,19.94
2023-09-20T10:27:58.205Z,19.92
2023-09-20T10:30:25.110Z,19.93
2023-09-20T10:33:00.902Z,19.93
2023-09-20T10:35:31.494Z,19.93
2023-09-20T10:38:10.144Z,19.93
2023-09-20T10:41:04.683Z,19.93
2023-09-20T10:43:36.992Z,19.93
2023-09-20T10:46:12.162Z,19.94
2023-09-20T10:48:57.690Z,19.94
2023-09-20T10:51:50.279Z,19.94
2023-09-20T10:54:30.753Z,19.97
2023-09-20T10:57:04.496Z,19.96
2023-09-20T10:59:32.557Z,19.97
2023-09-20T11:02:18.886Z,19.97
2023-09-20T11:04:47.815Z,19.98
2023-09-20T11:07:15.773Z,19.99
2023-09-20T11:09:44.087Z,19.98
2023-09-20T11:12:12.906Z,19.99
2023-09-20T11:14:44.262Z,20.01
2023-09-20T11:17:16.006Z,20.04
2023-09-20T11:19:43.235Z,20.05
2023-09-20T11:22:09.887Z,20.07
2023-09-20T11:24:38.527Z,20.09
2023-09-20T11:27:05.480Z,20.10
2023-09-20T11:29:35.887Z,20.13
2023-09-20T11:32:02.505Z,20.14
2023-09-20T11:34:45.401Z,20.17
2023-09-20T11:37:15.337Z,20.19
2023-09-20T11:39:44.668Z,20.20
2023-09-20T11:42:12.014Z,20.21
2023-09-20T11:44:38.722Z,20.22
2023-09-20T11:47:06.903Z,20.22
2023-09-20T11:49:34.138Z,20.23
2023-09-20T11:52:02.296Z,20.24
2023-09-20T11:54:35.483Z,20.25
2023-09-20T11:57:04.058Z,20.27
2023-09-20T11:59:30.708Z,20.28
2023-09-20T12:01:57.328Z,20.31
2023-09-20T12:04:24.223Z,20.32
2023-09-20T12:06:52.523Z,20.31
2023-09-20T12:09:19.781Z,20.33
2023-09-20T12:11:46.486Z,20.34
2023-09-20T12:14:15.040Z,20.34
2023-09-20T12:16:42.793Z,20.33
2023-09-20T12:19:09.721Z,20.34
2023-09-20T12:21:36.410Z,20.35
2023-09-20T12:24:03.103Z,20.35
2023-09-20T12:26:29.904Z,20.35
2023-09-20T12:28:57.157Z,20.36
2023-09-20T12:31:25.110Z,20.35
2023-09-20T12:33:53.728Z,20.34
2023-09-20T12:36:25.082Z,20.33
2023-09-20T12:38:52.100Z,20.34
2023-09-20T12:41:19.642Z,20.32
2023-09-20T12:43:46.079Z,20.33
2023-09-20T12:46:12.885Z,20.34
2023-09-20T12:48:40.076Z,20.34
2023-09-20T12:51:09.133Z,20.34
2023-09-20T12:53:35.959Z,20.35
2023-09-20T12:56:05.626Z,20.37
2023-09-20T12:58:32.747Z,20.39
2023-09-20T13:00:59.307Z,20.42
2023-09-20T13:03:30.167Z,20.43
2023-09-20T13:05:56.981Z,20.46
2023-09-20T13:08:26.495Z,20.47
2023-09-20T13:10:54.759Z,20.50
2023-09-20T13:13:24.880Z,20.51
2023-09-20T13:15:51.686Z,20.53
2023-09-20T13:18:18.362Z,20.53
2023-09-20T13:20:45.099Z,20.54
2023-09-20T13:23:12.831Z,20.55
2023-09-20T13:25:42.878Z,20.55
2023-09-20T13:28:10.129Z,20.55
2023-09-20T13:30:38.665Z,20.63
2023-09-20T13:33:06.849Z,20.75
2023-09-20T13:35:36.064Z,20.85
2023-09-20T13:38:04.403Z,20.89
2023-09-20T13:40:31.880Z,20.91
2023-09-20T13:42:59.011Z,20.89
2023-09-20T13:45:27.980Z,20.86
2023-09-20T13:47:55.166Z,20.85
2023-09-20T13:50:22.843Z,20.81
2023-09-20T13:52:49.814Z,20.79
2023-09-20T13:55:25.947Z,20.76
2023-09-20T13:57:59.811Z,20.73
2023-09-20T14:00:28.909Z,20.71
2023-09-20T14:02:56.214Z,20.68
2023-09-20T14:05:24.363Z,20.66
2023-09-20T14:07:56.763Z,20.64
2023-09-20T14:10:32.694Z,20.63
2023-09-20T14:12:59.684Z,20.61
2023-09-20T14:15:27.094Z,20.62
2023-09-20T14:17:55.112Z,20.66
2023-09-20T14:20:24.999Z,20.69
2023-09-20T14:22:56.689Z,20.71
2023-09-20T14:25:25.481Z,20.70
2023-09-20T14:27:53.887Z,20.70
2023-09-20T14:30:21.379Z,20.69
2023-09-20T14:32:50.002Z,20.69
2023-09-20T14:35:17.333Z,20.70
2023-09-20T14:37:46.215Z,20.71
2023-09-20T14:40:23.823Z,20.70
2023-09-20T14:42:53.140Z,20.70
2023-09-20T14:45:23.894Z,20.71
2023-09-20T14:47:51.992Z,20.71
2023-09-20T14:50:20.541Z,20.71
2023-09-20T14:52:48.433Z,20.70
2023-09-20T14:55:17.314Z,20.71
2023-09-20T14:57:44.159Z,20.70
2023-09-20T15:00:19.217Z,20.70
2023-09-20T15:02:47.514Z,20.68
2023-09-20T15:05:19.506Z,20.67
2023-09-20T15:07:49.698Z,20.65
2023-09-20T15:10:18.030Z,20.65
2023-09-20T15:12:49.503Z,20.63
2023-09-20T15:15:16.656Z,20.62
2023-09-20T15:17:44.605Z,20.62
2023-09-20T15:20:17.532Z,20.60
2023-09-20T15:22:47.543Z,20.59
2023-09-20T15:25:16.177Z,20.58
2023-09-20T15:27:45.581Z,20.57
2023-09-20T15:30:14.090Z,20.56
2023-09-20T15:32:41.477Z,20.54
2023-09-20T15:35:11.645Z,20.53
2023-09-20T15:37:45.318Z,20.51
2023-09-20T15:40:17.651Z,20.49
2023-09-20T15:42:47.446Z,20.47
2023-09-20T15:45:18.118Z,20.47
2023-09-20T15:47:45.429Z,20.45
2023-09-20T15:50:12.160Z,20.43
2023-09-20T15:52:41.166Z,20.41
2023-09-20T15:55:16.169Z,20.39
2023-09-20T15:57:43.938Z,20.38
2023-09-20T16:00:16.225Z,20.40
2023-09-20T16:02:44.178Z,20.38
2023-09-20T16:05:11.373Z,20.39
2023-09-20T16:07:41.381Z,20.40
2023-09-20T16:10:14.595Z,20.39
2023-09-20T16:12:44.315Z,20.39
2023-09-20T16:15:12.928Z,20.40
2023-09-20T16:17:39.829Z,20.40
2023-09-20T16:20:07.844Z,20.39
2023-09-20T16:22:35.009Z,20.39
2023-09-20T16:25:02.980Z,20.38
2023-09-20T16:27:30.245Z,20.38
2023-09-20T16:29:56.922Z,20.37
2023-09-20T16:32:23.628Z,20.36
2023-09-20T16:34:50.415Z,20.35
2023-09-20T16:37:17.030Z,20.33
2023-09-20T16:39:43.575Z,20.32
2023-09-20T16:42:10.995Z,20.31
2023-09-20T16:44:38.452Z,20.29
2023-09-20T16:47:05.928Z,20.30
2023-09-20T16:49:32.465Z,20.28
2023-09-20T16:52:00.518Z,20.27
2023-09-20T16:54:27.296Z,20.26
2023-09-20T16:56:53.997Z,20.24
2023-09-20T16:59:20.571Z,20.23
2023-09-20T17:01:47.117Z,20.23
2023-09-20T17:04:13.875Z,20.22
2023-09-20T17:06:40.458Z,20.22
2023-09-20T17:09:07.207Z,20.20
2023-09-20T17:11:33.883Z,20.21
2023-09-20T17:14:01.166Z,20.20
2023-09-20T17:16:27.816Z,20.17
2023-09-20T17:18:54.479Z,20.18
2023-09-20T17:21:21.706Z,20.18
2023-09-20T17:23:48.434Z,20.17
2023-09-20T17:26:15.098Z,20.16
2023-09-20T17:28:41.717Z,20.16
2023-09-20T17:31:12.047Z,20.15
2023-09-20T17:33:41.286Z,20.16
2023-09-20T17:36:12.737Z,20.15
2023-09-20T17:38:43.947Z,20.17
2023-09-20T17:41:19.600Z,20.19
2023-09-20T17:43:50.010Z,20.19
2023-09-20T17:46:16.772Z,20.19
2023-09-20T17:48:46.427Z,20.19
2023-09-20T17:51:13.160Z,20.19
2023-09-20T17:53:40.177Z,20.17
2023-09-20T17:56:06.942Z,20.20
2023-09-20T17:58:34.434Z,20.19
2023-09-20T18:01:02.482Z,20.20
2023-09-20T18:03:33.575Z,20.18
2023-09-20T18:06:01.121Z,20.18
2023-09-20T18:08:28.441Z,20.16
2023-09-20T18:10:56.924Z,20.16
2023-09-20T18:13:26.376Z,20.14
2023-09-20T18:15:54.204Z,20.14
2023-09-20T18:18:21.288Z,20.12
2023-09-20T18:20:56.081Z,20.12
2023-09-20T18:23:27.651Z,20.11
2023-09-20T18:25:57.865Z,20.11
2023-09-20T18:28:26.942Z,20.10
2023-09-20T18:30:53.539Z,20.10
2023-09-20T18:33:21.484Z,20.09
2023-09-20T18:35:48.944Z,20.07
2023-09-20T18:38:15.605Z,20.07
2023-09-20T18:40:42.730Z,20.06
2023-09-20T18:43:10.842Z,20.04
2023-09-20T18:45:38.458Z,20.03
2023-09-20T18:48:05.586Z,20.02
2023-09-20T18:50:34.047Z,20.02
2023-09-20T18:53:00.740Z,20.01
2023-09-20T18:55:27.538Z,20.02
2023-09-20T18:57:55.887Z,20.00
2023-09-20T19:00:24.171Z,20.00
2023-09-20T19:02:51.144Z,20.00
2023-09-20T19:05:18.490Z,20.00
2023-09-20T19:07:48.018Z,20.01
2023-09-20T19:10:15.658Z,20.00
2023-09-20T19:12:44.177Z,20.02
2023-09-20T19:15:12.330Z,20.03
2023-09-20T19:17:41.381Z,20.04
2023-09-20T19:20:12.888Z,20.04
2023-09-20T19:22:40.541Z,20.05
2023-09-20T19:25:11.233Z,20.05
2023-09-20T19:27:40.600Z,20.05
2023-09-20T19:30:11.135Z,20.07
2023-09-20T19:32:39.213Z,20.06
2023-09-20T19:35:08.416Z,20.06
2023-09-20T19:37:35.040Z,20.05
2023-09-20T19:40:06.277Z,20.05
2023-09-20T19:42:36.271Z,20.03
2023-09-20T19:45:05.331Z,20.01
2023-09-20T19:47:32.379Z,20.02
2023-09-20T19:50:00.419Z,20.02
2023-09-20T19:52:27.809Z,20.02
2023-09-20T19:54:55.378Z,20.01
2023-09-20T19:57:22.958Z,20.00
2023-09-20T19:59:50.474Z,19.99
2023-09-20T20:02:17.574Z,19.98
2023-09-20T20:04:44.275Z,19.98
2023-09-20T20:07:25.210Z,19.98
2023-09-20T20:09:54.245Z,19.96
2023-09-20T20:12:20.799Z,19.97
2023-09-20T20:14:50.150Z,19.96
2023-09-20T20:17:17.091Z,19.96
2023-09-20T20:19:43.766Z,19.96
2023-09-20T20:22:10.317Z,19.96
2023-09-20T20:24:37.578Z,19.94
2023-09-20T20:27:10.132Z,19.95
2023-09-20T20:29:36.936Z,19.96
2023-09-20T20:32:03.671Z,19.94
2023-09-20T20:34:30.268Z,19.93
2023-09-20T20:36:56.953Z,19.92
2023-09-20T20:39:23.499Z,19.93
2023-09-20T20:41:51.769Z,19.92
2023-09-20T20:44:18.801Z,19.94
2023-09-20T20:46:45.889Z,19.94
2023-09-20T20:49:12.435Z,19.95
2023-09-20T20:51:41.959Z,19.94
2023-09-20T20:54:13.107Z,19.95
2023-09-20T20:56:40.532Z,19.96
2023-09-20T20:59:10.263Z,19.96
2023-09-20T21:01:37.744Z,19.98
2023-09-20T21:04:10.679Z,19.98
2023-09-20T21:06:39.593Z,19.98
2023-09-20T21:09:07.202Z,19.97
2023-09-20T21:11:36.897Z,19.97
2023-09-20T21:14:09.398Z,19.97
2023-09-20T21:16:36.255Z,19.96
2023-09-20T21:19:02.864Z,19.96
2023-09-20T21:21:29.727Z,19.94
2023-09-20T21:23:56.473Z,19.94
2023-09-20T21:26:24.494Z,19.92
2023-09-20T21:28:54.455Z,19.92
2023-09-20T21:31:21.040Z,19.91
2023-09-20T21:33:48.348Z,19.91
2023-09-20T21:36:15.103Z,19.91
2023-09-20T21:38:42.154Z,19.91
2023-09-20T21:41:08.970Z,19.89
2023-09-20T21:43:35.601Z,19.89
2023-09-20T21:46:02.257Z,19.88
2023-09-20T21:48:28.936Z,19.88
2023-09-20T21:50:55.934Z,19.89
2023-09-20T21:53:22.562Z,19.90
2023-09-20T21:55:49.443Z,19.89
2023-09-20T21:58:17.666Z,19.89
2023-09-20T22:00:44.357Z,19.89
2023-09-20T22:03:11.072Z,19.89
2023-09-20T22:05:38.389Z,19.88
2023-09-20T22:08:08.601Z,19.88
2023-09-20T22:10:42.106Z,19.88
2023-09-20T22:13:09.529Z,19.87
2023-09-20T22:15:36.848Z,19.88
2023-09-20T22:18:24.655Z,19.88
2023-09-20T22:20:53.682Z,19.88
2023-09-20T22:23:20.924Z,19.86
2023-09-20T22:25:49.406Z,19.87
2023-09-20T22:28:18.891Z,19.88
2023-09-20T22:30:45.724Z,19.88
2023-09-20T22:33:12.548Z,19.89
2023-09-20T22:35:42.343Z,19.89
2023-09-20T22:38:10.603Z,19.89
2023-09-20T22:40:37.461Z,19.90
2023-09-20T22:43:05.566Z,19.89
2023-09-20T22:45:35.975Z,19.89
2023-09-20T22:48:07.016Z,19.90
2023-09-20T22:50:40.119Z,19.89
2023-09-20T22:53:09.548Z,19.89
2023-09-20T22:55:45.231Z,19.89
2023-09-20T22:58:20.565Z,19.88
2023-09-20T23:00:48.997Z,19.87
2023-09-20T23:03:26.084Z,19.87
2023-09-20T23:05:53.242Z,19.88
2023-09-20T23:08:20.592Z,19.87
2023-09-20T23:10:47.908Z,19.87
2023-09-20T23:13:35.981Z,19.86
2023-09-20T23:16:07.683Z,19.86
2023-09-20T23:18:36.317Z,19.85
2023-09-20T23:21:05.087Z,19.84
2023-09-20T23:23:31.751Z,19.84
2023-09-20T23:26:00.187Z,19.84
2023-09-20T23:28:27.054Z,19.83
2023-09-20T23:30:59.545Z,19.84
2023-09-20T23:33:29.226Z,19.83
2023-09-20T23:35:58.809Z,19.82
2023-09-20T23:38:29.757Z,19.82
2023-09-20T23:41:04.311Z,19.82
2023-09-20T23:43:31.763Z,19.81
2023-09-20T23:46:05.998Z,19.81
2023-09-20T23:48:33.402Z,19.81
2023-09-20T23:51:01.842Z,19.81
2023-09-20T23:53:31.950Z,19.82
2023-09-20T23:55:58.600Z,19.81
2023-09-20T23:58:25.309Z,19.81
